KMWH/MWH METAR and TAF weather

Enter ICAO airport designator
Station Type Date Time Source
KMWH METAR 2020/01/23 08:52 UTC NOAA

KMWH 230852Z AUTO 03003KT 3SM BR OVC003 03/02 A3009 RMK AO2 SLP198 T00280017 50001


Station Type Date Time Source
KMWH Decoded METAR 2020/01/23 08:52 UTC NOAA

GRANT COUNTY AIRPORT, WA, United States (KMWH) 47-12N 119-19W 362M
Jan 23, 2020 - 03:52 AM EST / 2020.01.23 0852 UTC
Wind: from the NNE (030 degrees) at 3 MPH (3 KT):0
Visibility: 3 mile(s):0
Sky conditions: overcast
Weather: mist
Temperature: 37.0 F (2.8 C)
Dew Point: 35.1 F (1.7 C)
Relative Humidity: 92%
Pressure (altimeter): 30.09 in. Hg (1018 hPa)
Pressure tendency: 0.00 inches (0.1 hPa) higher than three hours ago
ob: KMWH 230852Z AUTO 03003KT 3SM BR OVC003 03/02 A3009 RMK AO2 SLP198 T00280017 50001
cycle: 9

Station Type Date Time Source
KMWH TAF 2020/01/23 06:39 UTC NOAA

TAF KMWH 230537Z 2306/2406 00000KT 3SM BR OVC008
FM230700 11003KT 4SM -RA BR OVC007
FM231600 18002KT 5SM -RA BR OVC015
FM240000 15003KT 2SM BR OVC004

Example: see airport list